sensor_id;sensor_type;location;lat;lon;timestamp;P1;durP1;ratioP1;P2;durP2;ratioP2
3997;SDS011;61314;53.444;9.902;2023-04-25T00:01:57;6.85;;;6.25;;
3997;SDS011;61314;53.444;9.902;2023-04-25T00:04:26;7.68;;;5.70;;
3997;SDS011;61314;53.444;9.902;2023-04-25T00:06:56;7.88;;;6.50;;
3997;SDS011;61314;53.444;9.902;2023-04-25T00:09:23;6.25;;;5.35;;
3997;SDS011;61314;53.444;9.902;2023-04-25T00:11:50;5.95;;;5.00;;
3997;SDS011;61314;53.444;9.902;2023-04-25T00:14:17;5.57;;;4.65;;
3997;SDS011;61314;53.444;9.902;2023-04-25T00:16:44;10.85;;;5.18;;
3997;SDS011;61314;53.444;9.902;2023-04-25T00:19:11;7.72;;;4.70;;
3997;SDS011;61314;53.444;9.902;2023-04-25T00:21:39;8.75;;;4.82;;
3997;SDS011;61314;53.444;9.902;2023-04-25T00:24:07;13.50;;;5.55;;
3997;SDS011;61314;53.444;9.902;2023-04-25T00:26:34;10.60;;;4.75;;
3997;SDS011;61314;53.444;9.902;2023-04-25T00:29:02;15.68;;;4.82;;
3997;SDS011;61314;53.444;9.902;2023-04-25T00:31:29;13.27;;;5.60;;
3997;SDS011;61314;53.444;9.902;2023-04-25T00:33:56;13.38;;;6.03;;
3997;SDS011;61314;53.444;9.902;2023-04-25T00:36:23;22.08;;;6.00;;
3997;SDS011;61314;53.444;9.902;2023-04-25T00:38:52;33.55;;;6.18;;
3997;SDS011;61314;53.444;9.902;2023-04-25T00:41:20;16.48;;;5.32;;
3997;SDS011;61314;53.444;9.902;2023-04-25T00:43:48;15.50;;;5.45;;
3997;SDS011;61314;53.444;9.902;2023-04-25T00:46:16;34.92;;;5.63;;
3997;SDS011;61314;53.444;9.902;2023-04-25T00:48:43;28.38;;;5.13;;
3997;SDS011;61314;53.444;9.902;2023-04-25T00:51:10;15.80;;;5.65;;
3997;SDS011;61314;53.444;9.902;2023-04-25T00:53:38;28.38;;;5.45;;
3997;SDS011;61314;53.444;9.902;2023-04-25T00:56:06;18.42;;;4.80;;
3997;SDS011;61314;53.444;9.902;2023-04-25T00:58:33;17.60;;;5.25;;
3997;SDS011;61314;53.444;9.902;2023-04-25T01:01:00;19.05;;;5.38;;
3997;SDS011;61314;53.444;9.902;2023-04-25T01:03:28;23.27;;;5.22;;
3997;SDS011;61314;53.444;9.902;2023-04-25T01:05:55;17.70;;;5.55;;
3997;SDS011;61314;53.444;9.902;2023-04-25T01:08:23;28.90;;;5.80;;
3997;SDS011;61314;53.444;9.902;2023-04-25T01:10:51;26.35;;;6.50;;
3997;SDS011;61314;53.444;9.902;2023-04-25T01:13:18;12.70;;;4.70;;
3997;SDS011;61314;53.444;9.902;2023-04-25T01:15:45;21.35;;;6.85;;
3997;SDS011;61314;53.444;9.902;2023-04-25T01:18:13;19.98;;;5.35;;
3997;SDS011;61314;53.444;9.902;2023-04-25T01:20:40;31.40;;;6.28;;
3997;SDS011;61314;53.444;9.902;2023-04-25T01:23:08;21.05;;;6.07;;
3997;SDS011;61314;53.444;9.902;2023-04-25T01:25:35;41.00;;;7.15;;
3997;SDS011;61314;53.444;9.902;2023-04-25T01:28:03;28.05;;;6.32;;
3997;SDS011;61314;53.444;9.902;2023-04-25T01:30:30;28.55;;;6.05;;
3997;SDS011;61314;53.444;9.902;2023-04-25T01:32:57;25.55;;;6.68;;
3997;SDS011;61314;53.444;9.902;2023-04-25T01:35:26;31.75;;;6.20;;
3997;SDS011;61314;53.444;9.902;2023-04-25T01:37:53;35.70;;;7.82;;
3997;SDS011;61314;53.444;9.902;2023-04-25T01:40:20;35.38;;;5.63;;
3997;SDS011;61314;53.444;9.902;2023-04-25T01:42:48;25.60;;;6.55;;
3997;SDS011;61314;53.444;9.902;2023-04-25T01:45:15;36.95;;;7.30;;
3997;SDS011;61314;53.444;9.902;2023-04-25T01:47:42;28.25;;;7.13;;
3997;SDS011;61314;53.444;9.902;2023-04-25T01:50:12;32.08;;;7.50;;
3997;SDS011;61314;53.444;9.902;2023-04-25T01:52:39;23.35;;;5.85;;
3997;SDS011;61314;53.444;9.902;2023-04-25T01:55:06;25.38;;;5.80;;
3997;SDS011;61314;53.444;9.902;2023-04-25T01:57:33;38.13;;;6.88;;
3997;SDS011;61314;53.444;9.902;2023-04-25T02:00:00;44.25;;;6.68;;
3997;SDS011;61314;53.444;9.902;2023-04-25T02:02:29;28.42;;;6.38;;
3997;SDS011;61314;53.444;9.902;2023-04-25T02:04:56;33.95;;;5.93;;
3997;SDS011;61314;53.444;9.902;2023-04-25T02:07:23;34.55;;;6.45;;
3997;SDS011;61314;53.444;9.902;2023-04-25T02:09:49;32.67;;;6.90;;
3997;SDS011;61314;53.444;9.902;2023-04-25T02:12:16;29.75;;;6.75;;
3997;SDS011;61314;53.444;9.902;2023-04-25T02:14:43;34.17;;;5.70;;
3997;SDS011;61314;53.444;9.902;2023-04-25T02:17:10;22.15;;;6.47;;
3997;SDS011;61314;53.444;9.902;2023-04-25T02:19:38;24.90;;;6.13;;
3997;SDS011;61314;53.444;9.902;2023-04-25T02:22:05;27.55;;;5.10;;
3997;SDS011;61314;53.444;9.902;2023-04-25T02:24:32;32.13;;;6.38;;
3997;SDS011;61314;53.444;9.902;2023-04-25T02:27:00;29.02;;;4.75;;
3997;SDS011;61314;53.444;9.902;2023-04-25T02:29:27;35.42;;;6.13;;
3997;SDS011;61314;53.444;9.902;2023-04-25T02:31:54;36.45;;;6.53;;
3997;SDS011;61314;53.444;9.902;2023-04-25T02:34:22;30.70;;;6.28;;
3997;SDS011;61314;53.444;9.902;2023-04-25T02:36:49;29.33;;;5.80;;
3997;SDS011;61314;53.444;9.902;2023-04-25T02:39:18;26.88;;;5.50;;
3997;SDS011;61314;53.444;9.902;2023-04-25T02:41:45;17.55;;;4.57;;
3997;SDS011;61314;53.444;9.902;2023-04-25T02:44:12;36.35;;;6.88;;
3997;SDS011;61314;53.444;9.902;2023-04-25T02:46:38;42.83;;;6.93;;
3997;SDS011;61314;53.444;9.902;2023-04-25T02:49:05;35.00;;;6.43;;
3997;SDS011;61314;53.444;9.902;2023-04-25T02:51:32;21.95;;;5.40;;
3997;SDS011;61314;53.444;9.902;2023-04-25T02:53:59;38.28;;;5.93;;
3997;SDS011;61314;53.444;9.902;2023-04-25T02:56:26;21.38;;;5.72;;
3997;SDS011;61314;53.444;9.902;2023-04-25T02:58:53;35.10;;;6.50;;
3997;SDS011;61314;53.444;9.902;2023-04-25T03:01:20;24.20;;;5.40;;
3997;SDS011;61314;53.444;9.902;2023-04-25T03:03:47;24.13;;;4.82;;
3997;SDS011;61314;53.444;9.902;2023-04-25T03:06:14;26.17;;;5.82;;
3997;SDS011;61314;53.444;9.902;2023-04-25T03:08:41;22.85;;;5.57;;
3997;SDS011;61314;53.444;9.902;2023-04-25T03:11:08;33.65;;;6.15;;
3997;SDS011;61314;53.444;9.902;2023-04-25T03:13:35;25.83;;;5.90;;
3997;SDS011;61314;53.444;9.902;2023-04-25T03:16:02;21.67;;;5.28;;
3997;SDS011;61314;53.444;9.902;2023-04-25T03:18:29;39.15;;;8.55;;
3997;SDS011;61314;53.444;9.902;2023-04-25T03:20:56;29.80;;;5.30;;
3997;SDS011;61314;53.444;9.902;2023-04-25T03:23:23;24.42;;;5.50;;
3997;SDS011;61314;53.444;9.902;2023-04-25T03:25:49;32.65;;;5.38;;
3997;SDS011;61314;53.444;9.902;2023-04-25T03:28:16;20.90;;;5.78;;
3997;SDS011;61314;53.444;9.902;2023-04-25T03:30:42;33.35;;;5.72;;
3997;SDS011;61314;53.444;9.902;2023-04-25T03:33:09;30.65;;;6.93;;
3997;SDS011;61314;53.444;9.902;2023-04-25T03:35:36;21.90;;;5.78;;
3997;SDS011;61314;53.444;9.902;2023-04-25T03:38:03;23.83;;;7.00;;
3997;SDS011;61314;53.444;9.902;2023-04-25T03:40:30;26.55;;;4.50;;
3997;SDS011;61314;53.444;9.902;2023-04-25T03:42:56;23.40;;;4.50;;
3997;SDS011;61314;53.444;9.902;2023-04-25T03:45:23;26.35;;;5.85;;
3997;SDS011;61314;53.444;9.902;2023-04-25T03:47:50;27.75;;;5.72;;
3997;SDS011;61314;53.444;9.902;2023-04-25T03:50:17;31.05;;;7.40;;
3997;SDS011;61314;53.444;9.902;2023-04-25T03:52:44;22.85;;;5.88;;
3997;SDS011;61314;53.444;9.902;2023-04-25T03:55:10;25.25;;;6.10;;
3997;SDS011;61314;53.444;9.902;2023-04-25T03:57:37;15.55;;;4.32;;
3997;SDS011;61314;53.444;9.902;2023-04-25T04:00:03;22.80;;;5.53;;
3997;SDS011;61314;53.444;9.902;2023-04-25T04:02:30;30.70;;;6.10;;
3997;SDS011;61314;53.444;9.902;2023-04-25T04:04:59;29.73;;;6.45;;
3997;SDS011;61314;53.444;9.902;2023-04-25T04:07:26;19.13;;;5.00;;
3997;SDS011;61314;53.444;9.902;2023-04-25T04:09:52;25.15;;;4.78;;
3997;SDS011;61314;53.444;9.902;2023-04-25T04:12:19;37.13;;;4.97;;
3997;SDS011;61314;53.444;9.902;2023-04-25T04:14:46;18.42;;;5.35;;
3997;SDS011;61314;53.444;9.902;2023-04-25T04:17:13;27.92;;;5.20;;
3997;SDS011;61314;53.444;9.902;2023-04-25T04:19:40;33.90;;;5.72;;
3997;SDS011;61314;53.444;9.902;2023-04-25T04:22:07;21.90;;;5.22;;
3997;SDS011;61314;53.444;9.902;2023-04-25T04:24:34;26.48;;;5.45;;
3997;SDS011;61314;53.444;9.902;2023-04-25T04:27:01;24.20;;;5.03;;
3997;SDS011;61314;53.444;9.902;2023-04-25T04:29:29;18.95;;;4.40;;
3997;SDS011;61314;53.444;9.902;2023-04-25T04:31:56;18.73;;;4.50;;
3997;SDS011;61314;53.444;9.902;2023-04-25T04:34:23;24.30;;;5.35;;
3997;SDS011;61314;53.444;9.902;2023-04-25T04:36:51;16.48;;;4.25;;
3997;SDS011;61314;53.444;9.902;2023-04-25T04:39:18;20.10;;;5.15;;
3997;SDS011;61314;53.444;9.902;2023-04-25T04:41:46;23.48;;;4.95;;
3997;SDS011;61314;53.444;9.902;2023-04-25T04:44:13;16.58;;;4.88;;
3997;SDS011;61314;53.444;9.902;2023-04-25T04:46:40;17.35;;;4.97;;
3997;SDS011;61314;53.444;9.902;2023-04-25T04:49:11;30.20;;;6.03;;
3997;SDS011;61314;53.444;9.902;2023-04-25T04:51:39;32.20;;;6.32;;
3997;SDS011;61314;53.444;9.902;2023-04-25T04:54:07;28.50;;;5.00;;
3997;SDS011;61314;53.444;9.902;2023-04-25T04:56:34;17.90;;;5.03;;
3997;SDS011;61314;53.444;9.902;2023-04-25T04:59:01;13.07;;;4.53;;
3997;SDS011;61314;53.444;9.902;2023-04-25T05:01:28;34.17;;;5.97;;
3997;SDS011;61314;53.444;9.902;2023-04-25T05:03:58;22.98;;;4.97;;
3997;SDS011;61314;53.444;9.902;2023-04-25T05:06:27;18.05;;;5.10;;
3997;SDS011;61314;53.444;9.902;2023-04-25T05:08:57;18.13;;;4.97;;
3997;SDS011;61314;53.444;9.902;2023-04-25T05:11:24;18.98;;;5.05;;
3997;SDS011;61314;53.444;9.902;2023-04-25T05:13:52;58.75;;;5.95;;
3997;SDS011;61314;53.444;9.902;2023-04-25T05:16:19;28.63;;;5.18;;
3997;SDS011;61314;53.444;9.902;2023-04-25T05:18:47;20.92;;;4.60;;
3997;SDS011;61314;53.444;9.902;2023-04-25T05:21:14;18.90;;;5.60;;
3997;SDS011;61314;53.444;9.902;2023-04-25T05:23:41;25.38;;;5.35;;
3997;SDS011;61314;53.444;9.902;2023-04-25T05:26:08;20.45;;;4.85;;
3997;SDS011;61314;53.444;9.902;2023-04-25T05:28:40;23.48;;;5.35;;
3997;SDS011;61314;53.444;9.902;2023-04-25T05:31:09;19.40;;;5.47;;
3997;SDS011;61314;53.444;9.902;2023-04-25T05:33:36;21.75;;;6.78;;
3997;SDS011;61314;53.444;9.902;2023-04-25T05:36:03;19.25;;;4.70;;
3997;SDS011;61314;53.444;9.902;2023-04-25T05:38:30;14.90;;;4.57;;
3997;SDS011;61314;53.444;9.902;2023-04-25T05:41:00;18.88;;;3.95;;
3997;SDS011;61314;53.444;9.902;2023-04-25T05:43:27;15.38;;;5.00;;
3997;SDS011;61314;53.444;9.902;2023-04-25T05:45:54;18.20;;;3.90;;
3997;SDS011;61314;53.444;9.902;2023-04-25T05:48:21;19.75;;;5.43;;
3997;SDS011;61314;53.444;9.902;2023-04-25T05:50:48;21.67;;;4.95;;
3997;SDS011;61314;53.444;9.902;2023-04-25T05:53:15;16.75;;;3.72;;
3997;SDS011;61314;53.444;9.902;2023-04-25T05:55:42;31.48;;;5.05;;
3997;SDS011;61314;53.444;9.902;2023-04-25T05:58:09;14.77;;;3.80;;
3997;SDS011;61314;53.444;9.902;2023-04-25T06:00:36;28.77;;;5.63;;
3997;SDS011;61314;53.444;9.902;2023-04-25T06:03:03;22.23;;;4.45;;
3997;SDS011;61314;53.444;9.902;2023-04-25T06:05:30;19.42;;;4.45;;
3997;SDS011;61314;53.444;9.902;2023-04-25T06:07:57;19.92;;;5.43;;
3997;SDS011;61314;53.444;9.902;2023-04-25T06:10:24;20.02;;;4.95;;
3997;SDS011;61314;53.444;9.902;2023-04-25T06:12:51;14.52;;;4.47;;
3997;SDS011;61314;53.444;9.902;2023-04-25T06:15:18;15.35;;;3.55;;
3997;SDS011;61314;53.444;9.902;2023-04-25T06:17:48;21.40;;;5.07;;
3997;SDS011;61314;53.444;9.902;2023-04-25T06:20:15;19.52;;;4.53;;
3997;SDS011;61314;53.444;9.902;2023-04-25T06:22:43;26.98;;;4.35;;
3997;SDS011;61314;53.444;9.902;2023-04-25T06:25:10;19.23;;;5.50;;
3997;SDS011;61314;53.444;9.902;2023-04-25T06:27:37;26.58;;;5.18;;
3997;SDS011;61314;53.444;9.902;2023-04-25T06:30:04;17.75;;;4.35;;
3997;SDS011;61314;53.444;9.902;2023-04-25T06:32:31;15.70;;;4.68;;
3997;SDS011;61314;53.444;9.902;2023-04-25T06:35:00;17.00;;;4.70;;
3997;SDS011;61314;53.444;9.902;2023-04-25T06:37:27;16.83;;;4.18;;
3997;SDS011;61314;53.444;9.902;2023-04-25T06:39:54;23.20;;;6.28;;
3997;SDS011;61314;53.444;9.902;2023-04-25T06:42:21;18.58;;;4.00;;
3997;SDS011;61314;53.444;9.902;2023-04-25T06:44:48;15.65;;;4.00;;
3997;SDS011;61314;53.444;9.902;2023-04-25T06:47:15;15.75;;;4.55;;
3997;SDS011;61314;53.444;9.902;2023-04-25T06:49:42;17.90;;;4.53;;
3997;SDS011;61314;53.444;9.902;2023-04-25T06:52:10;20.95;;;4.80;;
3997;SDS011;61314;53.444;9.902;2023-04-25T06:54:37;23.05;;;5.63;;
3997;SDS011;61314;53.444;9.902;2023-04-25T06:57:04;14.90;;;3.85;;
3997;SDS011;61314;53.444;9.902;2023-04-25T06:59:31;22.05;;;4.45;;
3997;SDS011;61314;53.444;9.902;2023-04-25T07:01:58;14.70;;;3.65;;
3997;SDS011;61314;53.444;9.902;2023-04-25T07:04:25;21.23;;;4.70;;
3997;SDS011;61314;53.444;9.902;2023-04-25T07:06:53;10.27;;;4.13;;
3997;SDS011;61314;53.444;9.902;2023-04-25T07:09:20;30.48;;;5.50;;
3997;SDS011;61314;53.444;9.902;2023-04-25T07:11:47;10.77;;;3.60;;
3997;SDS011;61314;53.444;9.902;2023-04-25T07:14:15;24.48;;;4.00;;
3997;SDS011;61314;53.444;9.902;2023-04-25T07:16:42;12.77;;;4.20;;
3997;SDS011;61314;53.444;9.902;2023-04-25T07:19:09;11.70;;;3.70;;
3997;SDS011;61314;53.444;9.902;2023-04-25T07:21:36;23.42;;;3.88;;
3997;SDS011;61314;53.444;9.902;2023-04-25T07:24:03;26.33;;;4.22;;
3997;SDS011;61314;53.444;9.902;2023-04-25T07:26:30;22.48;;;4.30;;
3997;SDS011;61314;53.444;9.902;2023-04-25T07:28:57;14.07;;;3.10;;
3997;SDS011;61314;53.444;9.902;2023-04-25T07:31:24;18.85;;;4.15;;
3997;SDS011;61314;53.444;9.902;2023-04-25T07:33:51;10.82;;;4.53;;
3997;SDS011;61314;53.444;9.902;2023-04-25T07:36:18;14.60;;;3.25;;
3997;SDS011;61314;53.444;9.902;2023-04-25T07:38:45;13.32;;;3.40;;
3997;SDS011;61314;53.444;9.902;2023-04-25T07:41:12;13.48;;;3.35;;
3997;SDS011;61314;53.444;9.902;2023-04-25T07:43:39;20.90;;;3.20;;
3997;SDS011;61314;53.444;9.902;2023-04-25T07:46:06;15.70;;;3.25;;
3997;SDS011;61314;53.444;9.902;2023-04-25T07:48:33;10.75;;;3.20;;
3997;SDS011;61314;53.444;9.902;2023-04-25T07:51:00;12.20;;;3.05;;
3997;SDS011;61314;53.444;9.902;2023-04-25T07:53:28;9.05;;;2.60;;
3997;SDS011;61314;53.444;9.902;2023-04-25T07:55:54;7.70;;;2.60;;
3997;SDS011;61314;53.444;9.902;2023-04-25T07:58:21;18.52;;;3.22;;
3997;SDS011;61314;53.444;9.902;2023-04-25T08:00:49;8.23;;;2.75;;
3997;SDS011;61314;53.444;9.902;2023-04-25T08:03:16;9.40;;;3.17;;
3997;SDS011;61314;53.444;9.902;2023-04-25T08:05:43;12.88;;;2.67;;
3997;SDS011;61314;53.444;9.902;2023-04-25T08:08:12;7.60;;;2.50;;
3997;SDS011;61314;53.444;9.902;2023-04-25T08:10:38;8.35;;;2.40;;
3997;SDS011;61314;53.444;9.902;2023-04-25T08:13:06;19.05;;;3.60;;
3997;SDS011;61314;53.444;9.902;2023-04-25T08:15:33;15.55;;;2.92;;
3997;SDS011;61314;53.444;9.902;2023-04-25T08:18:00;13.50;;;2.40;;
3997;SDS011;61314;53.444;9.902;2023-04-25T08:20:28;11.07;;;2.95;;
3997;SDS011;61314;53.444;9.902;2023-04-25T08:22:55;11.23;;;2.70;;
3997;SDS011;61314;53.444;9.902;2023-04-25T08:25:22;5.10;;;2.45;;
3997;SDS011;61314;53.444;9.902;2023-04-25T08:27:49;18.58;;;3.38;;
3997;SDS011;61314;53.444;9.902;2023-04-25T08:30:16;12.63;;;3.38;;
3997;SDS011;61314;53.444;9.902;2023-04-25T08:32:43;5.03;;;2.50;;
3997;SDS011;61314;53.444;9.902;2023-04-25T08:35:10;5.35;;;1.75;;
3997;SDS011;61314;53.444;9.902;2023-04-25T08:37:37;8.18;;;1.33;;
3997;SDS011;61314;53.444;9.902;2023-04-25T08:40:05;13.35;;;2.13;;
3997;SDS011;61314;53.444;9.902;2023-04-25T08:42:33;9.93;;;2.55;;
3997;SDS011;61314;53.444;9.902;2023-04-25T08:45:01;8.95;;;2.10;;
3997;SDS011;61314;53.444;9.902;2023-04-25T08:47:32;7.75;;;2.40;;
3997;SDS011;61314;53.444;9.902;2023-04-25T08:50:02;11.68;;;2.75;;
3997;SDS011;61314;53.444;9.902;2023-04-25T08:52:30;7.07;;;2.13;;
3997;SDS011;61314;53.444;9.902;2023-04-25T08:54:59;16.25;;;2.28;;
3997;SDS011;61314;53.444;9.902;2023-04-25T08:57:27;7.32;;;1.92;;
3997;SDS011;61314;53.444;9.902;2023-04-25T08:59:54;20.48;;;3.70;;
3997;SDS011;61314;53.444;9.902;2023-04-25T09:02:22;12.82;;;2.38;;
3997;SDS011;61314;53.444;9.902;2023-04-25T09:04:51;12.02;;;2.28;;
3997;SDS011;61314;53.444;9.902;2023-04-25T09:07:21;8.73;;;2.22;;
3997;SDS011;61314;53.444;9.902;2023-04-25T09:09:48;9.57;;;1.75;;
3997;SDS011;61314;53.444;9.902;2023-04-25T09:12:15;3.83;;;1.95;;
3997;SDS011;61314;53.444;9.902;2023-04-25T09:14:42;5.40;;;1.58;;
3997;SDS011;61314;53.444;9.902;2023-04-25T09:17:09;6.72;;;1.98;;
3997;SDS011;61314;53.444;9.902;2023-04-25T09:19:37;5.68;;;1.45;;
3997;SDS011;61314;53.444;9.902;2023-04-25T09:22:08;4.30;;;2.08;;
3997;SDS011;61314;53.444;9.902;2023-04-25T09:27:06;8.70;;;1.90;;
3997;SDS011;61314;53.444;9.902;2023-04-25T09:29:37;6.70;;;1.30;;
3997;SDS011;61314;53.444;9.902;2023-04-25T09:32:20;3.35;;;1.70;;
3997;SDS011;61314;53.444;9.902;2023-04-25T09:34:52;7.40;;;2.17;;
3997;SDS011;61314;53.444;9.902;2023-04-25T09:37:20;5.80;;;2.33;;
3997;SDS011;61314;53.444;9.902;2023-04-25T09:39:47;8.70;;;2.00;;
3997;SDS011;61314;53.444;9.902;2023-04-25T09:42:15;12.68;;;2.17;;
3997;SDS011;61314;53.444;9.902;2023-04-25T09:44:43;11.65;;;1.90;;
3997;SDS011;61314;53.444;9.902;2023-04-25T09:47:11;5.45;;;1.67;;
3997;SDS011;61314;53.444;9.902;2023-04-25T09:49:39;11.43;;;2.03;;
3997;SDS011;61314;53.444;9.902;2023-04-25T09:52:14;9.57;;;1.85;;
3997;SDS011;61314;53.444;9.902;2023-04-25T09:54:41;6.95;;;1.98;;
3997;SDS011;61314;53.444;9.902;2023-04-25T09:59:43;4.88;;;2.10;;
3997;SDS011;61314;53.444;9.902;2023-04-25T10:02:11;8.40;;;1.60;;
3997;SDS011;61314;53.444;9.902;2023-04-25T10:04:38;7.82;;;1.40;;
3997;SDS011;61314;53.444;9.902;2023-04-25T10:07:06;7.70;;;3.05;;
3997;SDS011;61314;53.444;9.902;2023-04-25T10:09:34;8.23;;;1.42;;
3997;SDS011;61314;53.444;9.902;2023-04-25T10:12:03;9.75;;;1.65;;
3997;SDS011;61314;53.444;9.902;2023-04-25T10:14:31;6.18;;;1.50;;
3997;SDS011;61314;53.444;9.902;2023-04-25T10:16:58;6.07;;;1.85;;
3997;SDS011;61314;53.444;9.902;2023-04-25T10:19:27;7.43;;;1.85;;
3997;SDS011;61314;53.444;9.902;2023-04-25T10:21:58;13.35;;;1.85;;
3997;SDS011;61314;53.444;9.902;2023-04-25T10:24:28;11.35;;;2.67;;
3997;SDS011;61314;53.444;9.902;2023-04-25T10:26:56;9.07;;;1.75;;
3997;SDS011;61314;53.444;9.902;2023-04-25T10:29:24;3.60;;;1.73;;
3997;SDS011;61314;53.444;9.902;2023-04-25T10:31:51;11.27;;;2.43;;
3997;SDS011;61314;53.444;9.902;2023-04-25T10:34:19;10.63;;;2.30;;
3997;SDS011;61314;53.444;9.902;2023-04-25T10:36:50;16.80;;;2.30;;
3997;SDS011;61314;53.444;9.902;2023-04-25T10:39:24;13.03;;;2.67;;
3997;SDS011;61314;53.444;9.902;2023-04-25T10:41:56;12.52;;;2.08;;
3997;SDS011;61314;53.444;9.902;2023-04-25T10:44:27;7.28;;;1.60;;
3997;SDS011;61314;53.444;9.902;2023-04-25T10:46:59;10.65;;;1.90;;
3997;SDS011;61314;53.444;9.902;2023-04-25T10:49:33;7.07;;;1.77;;
3997;SDS011;61314;53.444;9.902;2023-04-25T10:52:10;8.07;;;1.57;;
3997;SDS011;61314;53.444;9.902;2023-04-25T10:54:56;7.83;;;1.70;;
3997;SDS011;61314;53.444;9.902;2023-04-25T10:57:39;8.40;;;1.83;;
3997;SDS011;61314;53.444;9.902;2023-04-25T11:00:08;2.70;;;1.30;;
3997;SDS011;61314;53.444;9.902;2023-04-25T11:02:43;15.80;;;2.20;;
3997;SDS011;61314;53.444;9.902;2023-04-25T11:05:19;7.85;;;2.00;;
3997;SDS011;61314;53.444;9.902;2023-04-25T11:10:30;5.45;;;2.10;;
3997;SDS011;61314;53.444;9.902;2023-04-25T11:12:57;3.42;;;1.65;;
3997;SDS011;61314;53.444;9.902;2023-04-25T11:15:26;7.20;;;2.50;;
3997;SDS011;61314;53.444;9.902;2023-04-25T11:17:53;9.27;;;1.90;;
3997;SDS011;61314;53.444;9.902;2023-04-25T11:20:21;8.95;;;1.90;;
3997;SDS011;61314;53.444;9.902;2023-04-25T11:22:48;8.55;;;2.30;;
3997;SDS011;61314;53.444;9.902;2023-04-25T11:25:17;12.07;;;1.90;;
3997;SDS011;61314;53.444;9.902;2023-04-25T11:27:51;4.03;;;1.98;;
3997;SDS011;61314;53.444;9.902;2023-04-25T11:30:19;7.63;;;1.55;;
3997;SDS011;61314;53.444;9.902;2023-04-25T11:32:46;10.50;;;1.95;;
3997;SDS011;61314;53.444;9.902;2023-04-25T11:35:13;10.40;;;2.00;;
3997;SDS011;61314;53.444;9.902;2023-04-25T11:37:42;5.57;;;1.80;;
3997;SDS011;61314;53.444;9.902;2023-04-25T11:40:09;8.20;;;2.05;;
3997;SDS011;61314;53.444;9.902;2023-04-25T11:42:38;5.40;;;1.95;;
3997;SDS011;61314;53.444;9.902;2023-04-25T11:45:06;5.57;;;1.90;;
3997;SDS011;61314;53.444;9.902;2023-04-25T11:47:34;14.63;;;2.20;;
3997;SDS011;61314;53.444;9.902;2023-04-25T11:50:01;7.45;;;1.15;;
3997;SDS011;61314;53.444;9.902;2023-04-25T11:52:42;6.03;;;1.83;;
3997;SDS011;61314;53.444;9.902;2023-04-25T11:55:13;2.20;;;1.00;;
3997;SDS011;61314;53.444;9.902;2023-04-25T11:57:41;6.50;;;1.25;;
3997;SDS011;61314;53.444;9.902;2023-04-25T12:00:09;6.65;;;1.40;;
3997;SDS011;61314;53.444;9.902;2023-04-25T12:02:44;2.38;;;1.05;;
3997;SDS011;61314;53.444;9.902;2023-04-25T12:05:12;7.78;;;1.50;;
3997;SDS011;61314;53.444;9.902;2023-04-25T12:07:56;4.78;;;1.95;;
3997;SDS011;61314;53.444;9.902;2023-04-25T12:10:23;2.03;;;1.45;;
3997;SDS011;61314;53.444;9.902;2023-04-25T12:12:51;5.20;;;1.30;;
3997;SDS011;61314;53.444;9.902;2023-04-25T12:15:24;5.27;;;2.50;;
3997;SDS011;61314;53.444;9.902;2023-04-25T12:17:52;5.00;;;1.63;;
3997;SDS011;61314;53.444;9.902;2023-04-25T12:20:24;5.63;;;1.87;;
3997;SDS011;61314;53.444;9.902;2023-04-25T12:22:52;6.53;;;1.73;;
3997;SDS011;61314;53.444;9.902;2023-04-25T12:31:06;5.73;;;1.67;;
3997;SDS011;61314;53.444;9.902;2023-04-25T12:33:34;13.20;;;1.90;;
3997;SDS011;61314;53.444;9.902;2023-04-25T12:36:01;8.53;;;2.03;;
3997;SDS011;61314;53.444;9.902;2023-04-25T12:38:37;7.40;;;2.38;;
3997;SDS011;61314;53.444;9.902;2023-04-25T12:41:04;7.17;;;1.87;;
3997;SDS011;61314;53.444;9.902;2023-04-25T12:43:31;10.30;;;1.70;;
3997;SDS011;61314;53.444;9.902;2023-04-25T12:45:59;5.47;;;1.92;;
3997;SDS011;61314;53.444;9.902;2023-04-25T12:48:26;5.00;;;1.52;;
3997;SDS011;61314;53.444;9.902;2023-04-25T12:50:53;4.40;;;1.50;;
3997;SDS011;61314;53.444;9.902;2023-04-25T12:53:20;5.07;;;1.13;;
3997;SDS011;61314;53.444;9.902;2023-04-25T12:55:48;8.23;;;2.20;;
3997;SDS011;61314;53.444;9.902;2023-04-25T12:58:15;11.83;;;1.90;;
3997;SDS011;61314;53.444;9.902;2023-04-25T13:00:43;10.18;;;2.03;;
3997;SDS011;61314;53.444;9.902;2023-04-25T13:03:11;10.52;;;2.20;;
3997;SDS011;61314;53.444;9.902;2023-04-25T13:05:58;8.20;;;2.03;;
3997;SDS011;61314;53.444;9.902;2023-04-25T13:08:25;7.60;;;1.52;;
3997;SDS011;61314;53.444;9.902;2023-04-25T13:10:52;4.07;;;1.60;;
3997;SDS011;61314;53.444;9.902;2023-04-25T13:13:19;13.43;;;1.30;;
3997;SDS011;61314;53.444;9.902;2023-04-25T13:15:47;8.83;;;1.93;;
3997;SDS011;61314;53.444;9.902;2023-04-25T13:18:14;7.60;;;1.87;;
3997;SDS011;61314;53.444;9.902;2023-04-25T13:20:41;10.43;;;1.93;;
3997;SDS011;61314;53.444;9.902;2023-04-25T13:23:08;9.00;;;1.45;;
3997;SDS011;61314;53.444;9.902;2023-04-25T13:25:35;5.80;;;1.80;;
3997;SDS011;61314;53.444;9.902;2023-04-25T13:28:02;16.60;;;2.70;;
3997;SDS011;61314;53.444;9.902;2023-04-25T13:30:30;7.80;;;1.65;;
3997;SDS011;61314;53.444;9.902;2023-04-25T13:32:57;5.17;;;2.47;;
3997;SDS011;61314;53.444;9.902;2023-04-25T13:35:30;5.67;;;1.73;;
3997;SDS011;61314;53.444;9.902;2023-04-25T13:37:57;7.33;;;2.43;;
3997;SDS011;61314;53.444;9.902;2023-04-25T13:40:24;5.63;;;1.90;;
3997;SDS011;61314;53.444;9.902;2023-04-25T13:42:51;5.72;;;1.67;;
3997;SDS011;61314;53.444;9.902;2023-04-25T13:45:19;8.53;;;2.50;;
3997;SDS011;61314;53.444;9.902;2023-04-25T13:47:46;11.25;;;1.70;;
3997;SDS011;61314;53.444;9.902;2023-04-25T13:50:13;8.50;;;2.07;;
3997;SDS011;61314;53.444;9.902;2023-04-25T13:52:42;5.73;;;2.00;;
3997;SDS011;61314;53.444;9.902;2023-04-25T13:55:09;6.43;;;1.52;;
3997;SDS011;61314;53.444;9.902;2023-04-25T13:57:36;5.80;;;1.80;;
3997;SDS011;61314;53.444;9.902;2023-04-25T14:00:07;5.97;;;1.50;;
3997;SDS011;61314;53.444;9.902;2023-04-25T14:02:37;5.03;;;1.97;;
3997;SDS011;61314;53.444;9.902;2023-04-25T14:05:05;12.55;;;1.95;;
3997;SDS011;61314;53.444;9.902;2023-04-25T14:07:33;8.73;;;1.98;;
3997;SDS011;61314;53.444;9.902;2023-04-25T14:10:01;5.55;;;1.50;;
3997;SDS011;61314;53.444;9.902;2023-04-25T14:12:28;7.53;;;2.05;;
3997;SDS011;61314;53.444;9.902;2023-04-25T14:14:55;8.10;;;1.90;;
3997;SDS011;61314;53.444;9.902;2023-04-25T14:17:22;11.05;;;1.83;;
3997;SDS011;61314;53.444;9.902;2023-04-25T14:19:49;7.97;;;2.30;;
3997;SDS011;61314;53.444;9.902;2023-04-25T14:22:20;8.35;;;2.30;;
3997;SDS011;61314;53.444;9.902;2023-04-25T14:24:47;8.38;;;1.63;;
3997;SDS011;61314;53.444;9.902;2023-04-25T14:27:14;10.70;;;2.17;;
3997;SDS011;61314;53.444;9.902;2023-04-25T14:29:41;6.82;;;1.92;;
3997;SDS011;61314;53.444;9.902;2023-04-25T14:32:07;10.10;;;2.10;;
3997;SDS011;61314;53.444;9.902;2023-04-25T14:34:35;7.57;;;1.63;;
3997;SDS011;61314;53.444;9.902;2023-04-25T14:37:02;10.90;;;2.23;;
3997;SDS011;61314;53.444;9.902;2023-04-25T14:39:29;6.15;;;1.60;;
3997;SDS011;61314;53.444;9.902;2023-04-25T14:41:56;6.25;;;1.58;;
3997;SDS011;61314;53.444;9.902;2023-04-25T14:44:23;5.20;;;1.60;;
3997;SDS011;61314;53.444;9.902;2023-04-25T14:46:50;5.88;;;1.50;;
3997;SDS011;61314;53.444;9.902;2023-04-25T14:49:18;9.02;;;2.08;;
3997;SDS011;61314;53.444;9.902;2023-04-25T14:51:45;7.88;;;2.00;;
3997;SDS011;61314;53.444;9.902;2023-04-25T14:54:14;3.63;;;1.83;;
3997;SDS011;61314;53.444;9.902;2023-04-25T14:56:41;7.07;;;1.60;;
3997;SDS011;61314;53.444;9.902;2023-04-25T14:59:08;7.03;;;1.90;;
3997;SDS011;61314;53.444;9.902;2023-04-25T15:01:34;5.60;;;1.88;;
3997;SDS011;61314;53.444;9.902;2023-04-25T15:04:01;4.60;;;1.67;;
3997;SDS011;61314;53.444;9.902;2023-04-25T15:06:30;4.75;;;1.90;;
3997;SDS011;61314;53.444;9.902;2023-04-25T15:08:56;9.23;;;1.75;;
3997;SDS011;61314;53.444;9.902;2023-04-25T15:11:23;8.90;;;2.00;;